Terminal Aerodrome Forecast
Issued by NWS

Home | Current Version | Previous Version | Text Only | Print | Product List | Glossary Off
Versions: 1 2 3 4 5 6 7 8 9 10 11 12 13 14 15 16 17 18 19 20 21 22 23 24 25 26 27 28 29 30 31

101
FTUS43 KLOT 290255 AAB
TAFORD
TAF AMD
KORD 290255Z 2903/3006 03005KT P6SM FEW010 SCT060 BKN150
     FM290600 03003KT P6SM BKN015
     FM290900 VRB03KT 5SM BR BKN010 OVC080
     FM291500 07008KT P6SM VCSH BKN025 OVC050
     FM292100 04010KT P6SM SCT040 BKN120
     FM300200 02006KT P6SM FEW040 BKN150=

USA.gov is the U.S. government's official web portal to all federal, state and local government web resources and services.